createdAt,value
2018-06-05T00:00:21.192Z,22.80
2018-06-05T00:02:50.640Z,22.60
2018-06-05T00:05:19.990Z,41.80
2018-06-05T00:07:49.396Z,24.33
2018-06-05T00:10:19.073Z,26.90
2018-06-05T00:12:48.917Z,26.73
2018-06-05T00:15:18.295Z,29.47
2018-06-05T00:17:48.043Z,29.60
2018-06-05T00:20:17.141Z,24.67
2018-06-05T00:22:46.462Z,34.27
2018-06-05T00:25:15.761Z,32.40
2018-06-05T00:27:45.097Z,33.17
2018-06-05T00:30:14.502Z,36.47
2018-06-05T00:32:43.891Z,33.00
2018-06-05T00:35:13.275Z,34.53
2018-06-05T00:37:58.805Z,30.37
2018-06-05T00:40:28.353Z,36.73
2018-06-05T00:42:57.671Z,28.40
2018-06-05T00:45:27.012Z,24.13
2018-06-05T00:47:56.308Z,39.57
2018-06-05T00:50:25.611Z,40.37
2018-06-05T00:52:54.907Z,35.60
2018-06-05T00:55:24.156Z,33.60
2018-06-05T00:57:53.535Z,39.10
2018-06-05T01:00:22.899Z,30.73
2018-06-05T01:02:52.302Z,34.87
2018-06-05T01:05:21.575Z,44.40
2018-06-05T01:07:50.858Z,37.30
2018-06-05T01:10:20.119Z,39.00
2018-06-05T01:12:49.511Z,47.73
2018-06-05T01:15:18.795Z,38.07
2018-06-05T01:17:48.087Z,31.13
2018-06-05T01:20:17.389Z,38.20
2018-06-05T01:22:46.895Z,37.27
2018-06-05T01:25:16.214Z,30.53
2018-06-05T01:27:45.497Z,38.10
2018-06-05T01:30:14.779Z,40.70
2018-06-05T01:32:44.189Z,36.70
2018-06-05T01:35:13.705Z,35.10
2018-06-05T01:37:43.222Z,33.93
2018-06-05T01:40:12.590Z,36.80
2018-06-05T01:42:42.018Z,35.60
2018-06-05T01:45:11.644Z,31.60
2018-06-05T01:47:40.974Z,38.43
2018-06-05T01:50:10.280Z,35.50
2018-06-05T01:52:39.469Z,29.67
2018-06-05T01:55:08.942Z,30.40
2018-06-05T01:57:38.273Z,36.63
2018-06-05T02:00:07.590Z,34.70
2018-06-05T02:02:36.867Z,33.30
2018-06-05T02:05:06.169Z,31.40
2018-06-05T02:07:35.846Z,34.90
2018-06-05T02:10:05.199Z,34.87
2018-06-05T02:12:34.505Z,40.67
2018-06-05T02:15:03.808Z,39.00
2018-06-05T02:17:33.085Z,36.40
2018-06-05T02:20:02.382Z,33.40
2018-06-05T02:22:31.686Z,37.80
2018-06-05T02:25:00.981Z,27.67
2018-06-05T02:27:30.281Z,37.40
2018-06-05T02:30:00.266Z,34.57
2018-06-05T02:32:29.530Z,37.10
2018-06-05T02:34:58.816Z,31.10
2018-06-05T02:37:28.094Z,43.33
2018-06-05T02:39:57.326Z,22.20
2018-06-05T02:42:26.571Z,24.03
2018-06-05T02:44:55.855Z,30.97
2018-06-05T02:47:25.151Z,32.57
2018-06-05T02:49:54.407Z,24.17
2018-06-05T02:52:24.139Z,27.47
2018-06-05T02:54:53.428Z,27.23
2018-06-05T02:57:22.693Z,25.20
2018-06-05T02:59:51.998Z,30.27
2018-06-05T03:02:27.863Z,27.50
2018-06-05T03:04:57.178Z,31.00
2018-06-05T03:07:26.486Z,28.90
2018-06-05T03:09:55.751Z,31.23
2018-06-05T03:12:25.180Z,35.00
2018-06-05T03:14:54.473Z,23.23
2018-06-05T03:17:23.827Z,31.33
2018-06-05T03:19:53.099Z,32.97
2018-06-05T03:22:22.377Z,35.30
2018-06-05T03:24:51.658Z,31.10
2018-06-05T03:27:20.983Z,37.80
2018-06-05T03:29:50.251Z,29.70
2018-06-05T03:32:19.554Z,30.63
2018-06-05T03:34:49.396Z,21.87
2018-06-05T03:37:19.046Z,29.90
2018-06-05T03:39:48.297Z,28.00
2018-06-05T03:42:17.606Z,26.03
2018-06-05T03:44:46.900Z,45.63
2018-06-05T03:47:16.275Z,44.20
2018-06-05T03:49:45.640Z,37.47
2018-06-05T03:52:14.977Z,27.50
2018-06-05T03:54:44.399Z,50.10
2018-06-05T03:57:14.188Z,35.07
2018-06-05T03:59:43.435Z,31.13
2018-06-05T04:02:12.735Z,31.17
2018-06-05T04:04:42.094Z,31.80
2018-06-05T04:07:11.427Z,41.23
2018-06-05T04:09:40.737Z,28.20
2018-06-05T04:12:10.134Z,35.97
2018-06-05T04:14:39.525Z,28.77
2018-06-05T04:17:08.849Z,24.30
2018-06-05T04:19:38.690Z,38.13
2018-06-05T04:22:08.127Z,31.10
2018-06-05T04:24:37.429Z,32.63
2018-06-05T04:27:06.830Z,27.63
2018-06-05T04:29:36.162Z,23.13
2018-06-05T04:32:05.479Z,33.57
2018-06-05T04:34:34.849Z,22.20
2018-06-05T04:37:04.167Z,39.30
2018-06-05T04:39:33.870Z,25.67
2018-06-05T04:42:03.297Z,29.63
2018-06-05T04:44:32.641Z,26.57
2018-06-05T04:47:01.954Z,28.43
2018-06-05T04:49:31.325Z,35.30
2018-06-05T04:52:00.891Z,23.67
2018-06-05T04:54:30.284Z,32.87
2018-06-05T04:57:02.211Z,24.57
2018-06-05T04:59:31.529Z,41.37
2018-06-05T05:02:00.960Z,29.40
2018-06-05T05:04:30.737Z,32.70
2018-06-05T05:07:00.090Z,35.57
2018-06-05T05:09:29.416Z,30.50
2018-06-05T05:11:58.750Z,51.23
2018-06-05T05:14:28.043Z,37.87
2018-06-05T05:16:57.380Z,33.50
2018-06-05T05:19:26.717Z,40.77
2018-06-05T05:21:56.159Z,35.13
2018-06-05T05:24:25.513Z,36.87
2018-06-05T05:26:55.164Z,34.50
2018-06-05T05:29:24.562Z,31.50
2018-06-05T05:31:53.970Z,41.57
2018-06-05T05:34:25.631Z,69.63
2018-06-05T05:36:55.101Z,32.40
2018-06-05T05:39:24.453Z,36.53
2018-06-05T05:41:54.349Z,39.90
2018-06-05T05:44:23.736Z,31.53
2018-06-05T05:46:53.083Z,34.20
2018-06-05T05:49:22.713Z,32.53
2018-06-05T05:51:52.064Z,34.67
2018-06-05T05:54:21.530Z,34.43
2018-06-05T05:56:50.930Z,30.50
2018-06-05T05:59:20.249Z,25.33
2018-06-05T06:01:49.565Z,35.83
2018-06-05T06:04:18.950Z,41.13
2018-06-05T06:06:48.308Z,39.00
2018-06-05T06:09:17.673Z,27.87
2018-06-05T06:11:47.260Z,32.30
2018-06-05T06:14:16.619Z,34.33
2018-06-05T06:16:45.969Z,36.93
2018-06-05T06:19:15.349Z,21.40
2018-06-05T06:21:44.687Z,36.27
2018-06-05T06:24:14.079Z,30.77
2018-06-05T06:26:43.418Z,37.07
2018-06-05T06:29:12.809Z,30.17
2018-06-05T06:31:42.184Z,24.47
2018-06-05T06:34:11.882Z,43.90
2018-06-05T06:36:41.194Z,41.67
2018-06-05T06:39:10.899Z,26.17
2018-06-05T06:41:40.304Z,32.10
2018-06-05T06:44:09.615Z,42.00
2018-06-05T06:46:38.946Z,31.33
2018-06-05T06:49:08.306Z,29.23
2018-06-05T06:51:37.634Z,31.53
2018-06-05T06:54:06.984Z,33.57
2018-06-05T06:56:36.639Z,39.03
2018-06-05T06:59:06.026Z,38.63
2018-06-05T07:01:35.354Z,33.37
2018-06-05T07:04:04.729Z,28.53
2018-06-05T07:06:34.050Z,42.43
2018-06-05T07:09:03.456Z,26.43
2018-06-05T07:11:32.846Z,43.00
2018-06-05T07:14:02.213Z,27.10
2018-06-05T07:16:31.569Z,37.07
2018-06-05T07:19:01.307Z,33.20
2018-06-05T07:21:30.633Z,26.80
2018-06-05T07:24:00.036Z,41.80
2018-06-05T07:26:29.342Z,26.73
2018-06-05T07:28:58.676Z,32.73
2018-06-05T07:31:28.057Z,35.77
2018-06-05T07:33:57.447Z,29.63
2018-06-05T07:36:27.027Z,27.73
2018-06-05T07:38:56.355Z,24.43
2018-06-05T07:41:25.982Z,25.83
2018-06-05T07:43:55.453Z,36.53
2018-06-05T07:46:24.849Z,24.77
2018-06-05T07:48:54.191Z,40.03
2018-06-05T07:51:23.539Z,29.63
2018-06-05T07:53:52.872Z,30.23
2018-06-05T07:56:22.254Z,43.10
2018-06-05T07:58:51.580Z,24.43
2018-06-05T08:01:20.974Z,32.13
2018-06-05T08:03:50.754Z,25.43
2018-06-05T08:06:20.092Z,21.90
2018-06-05T08:08:49.515Z,28.27
2018-06-05T08:11:18.877Z,29.50
2018-06-05T08:13:48.226Z,39.90
2018-06-05T08:16:17.607Z,25.97
2018-06-05T08:18:47.014Z,28.70
2018-06-05T08:21:16.374Z,27.27
2018-06-05T08:23:45.713Z,28.23
2018-06-05T08:26:15.329Z,30.07
2018-06-05T08:28:44.683Z,18.10
2018-06-05T08:31:14.029Z,27.50
2018-06-05T08:33:43.414Z,36.90
2018-06-05T08:36:12.795Z,28.17
2018-06-05T08:38:42.145Z,30.40
2018-06-05T08:41:11.544Z,25.40
2018-06-05T08:43:40.921Z,25.63
2018-06-05T08:46:10.262Z,23.10
2018-06-05T08:48:39.996Z,31.90
2018-06-05T08:51:09.313Z,17.67
2018-06-05T08:53:38.650Z,23.37
2018-06-05T08:56:08.074Z,28.33
2018-06-05T08:58:37.443Z,34.63
2018-06-05T09:01:06.927Z,21.47
2018-06-05T09:03:36.306Z,23.97
2018-06-05T09:06:05.755Z,25.30
2018-06-05T09:08:35.146Z,20.77
2018-06-05T09:11:04.718Z,22.80
2018-06-05T09:13:34.071Z,26.10
2018-06-05T09:16:03.480Z,28.67
2018-06-05T09:18:32.878Z,20.00
2018-06-05T09:21:02.290Z,33.57
2018-06-05T09:23:31.676Z,21.37
2018-06-05T09:26:01.080Z,22.40
2018-06-05T09:28:30.510Z,15.43
2018-06-05T09:31:00.436Z,19.80
2018-06-05T09:33:29.968Z,20.17
2018-06-05T09:35:59.343Z,23.57
2018-06-05T09:38:28.738Z,24.90
2018-06-05T09:40:58.107Z,24.30
2018-06-05T09:43:27.482Z,20.77
2018-06-05T09:45:56.894Z,20.53
2018-06-05T09:48:26.279Z,16.60
2018-06-05T09:50:55.622Z,22.63
2018-06-05T09:53:25.027Z,20.73
2018-06-05T09:55:54.786Z,19.13
2018-06-05T09:58:24.414Z,22.93
2018-06-05T10:00:54.114Z,16.33
2018-06-05T10:03:23.549Z,31.43
2018-06-05T10:05:52.954Z,15.40
2018-06-05T10:08:22.333Z,29.13
2018-06-05T10:10:51.667Z,16.03
2018-06-05T10:13:21.082Z,13.43
2018-06-05T10:15:50.567Z,25.30
2018-06-05T10:18:20.205Z,23.57
2018-06-05T10:20:49.638Z,16.93
2018-06-05T10:23:19.064Z,23.40
2018-06-05T10:25:48.455Z,16.27
2018-06-05T10:28:17.846Z,24.20
2018-06-05T10:30:47.202Z,12.70
2018-06-05T10:33:16.562Z,19.20
2018-06-05T10:35:45.940Z,14.63
2018-06-05T10:38:15.335Z,10.87
2018-06-05T10:40:44.966Z,17.53
2018-06-05T10:43:14.331Z,29.13
2018-06-05T10:45:43.675Z,19.97
2018-06-05T10:48:13.061Z,16.23
2018-06-05T10:50:42.475Z,20.30
2018-06-05T10:53:11.847Z,21.97
2018-06-05T10:55:41.232Z,28.73
2018-06-05T10:58:10.584Z,19.20
2018-06-05T11:00:39.986Z,24.00
2018-06-05T11:03:09.502Z,13.93
2018-06-05T11:05:38.868Z,11.23
2018-06-05T11:08:08.236Z,19.00
2018-06-05T11:10:37.638Z,12.30
2018-06-05T11:13:06.971Z,23.60
2018-06-05T11:15:36.386Z,12.90
2018-06-05T11:18:05.973Z,22.00
2018-06-05T11:20:35.309Z,21.30
2018-06-05T11:23:04.749Z,17.43
2018-06-05T11:25:34.399Z,15.17
2018-06-05T11:28:03.811Z,13.63
2018-06-05T11:30:33.270Z,12.80
2018-06-05T11:33:02.674Z,14.90
2018-06-05T11:35:32.076Z,18.40
2018-06-05T11:38:01.437Z,18.37
2018-06-05T11:40:30.803Z,19.63
2018-06-05T11:43:00.177Z,19.90
2018-06-05T11:45:29.556Z,31.00
2018-06-05T11:47:59.498Z,21.03
2018-06-05T11:50:28.872Z,19.70
2018-06-05T11:52:58.297Z,14.80
2018-06-05T11:55:27.658Z,16.90
2018-06-05T11:57:57.013Z,20.93
2018-06-05T12:00:26.346Z,16.40
2018-06-05T12:02:55.702Z,17.13
2018-06-05T12:05:25.099Z,13.70
2018-06-05T12:07:54.451Z,15.17
2018-06-05T12:10:24.047Z,15.57
2018-06-05T12:12:53.428Z,12.17
2018-06-05T12:15:22.795Z,29.30
2018-06-05T12:17:52.234Z,17.80
2018-06-05T12:20:21.566Z,11.93
2018-06-05T12:22:50.902Z,14.80
2018-06-05T12:25:20.332Z,11.90
2018-06-05T12:27:49.667Z,15.47
2018-06-05T12:30:18.999Z,22.57
2018-06-05T12:32:48.963Z,16.60
2018-06-05T12:35:18.365Z,17.80
2018-06-05T12:37:47.763Z,10.37
2018-06-05T12:40:17.126Z,11.27
2018-06-05T12:42:46.470Z,12.80
2018-06-05T12:45:15.826Z,11.07
2018-06-05T12:47:45.175Z,15.43
2018-06-05T12:50:14.489Z,15.50
2018-06-05T12:52:43.883Z,17.10
2018-06-05T12:55:14.304Z,15.10
2018-06-05T12:57:43.675Z,12.20
2018-06-05T13:00:13.056Z,11.60
2018-06-05T13:02:42.469Z,14.40
2018-06-05T13:05:11.795Z,18.37
2018-06-05T13:07:41.113Z,7.60
2018-06-05T13:10:10.585Z,16.13
2018-06-05T13:12:39.998Z,11.67
2018-06-05T13:15:09.401Z,13.00
2018-06-05T13:17:39.507Z,15.57
2018-06-05T13:20:08.854Z,14.90
2018-06-05T13:22:38.541Z,8.20
2018-06-05T13:25:07.889Z,16.50
2018-06-05T13:27:37.249Z,9.83
2018-06-05T13:30:06.572Z,11.30
2018-06-05T13:32:36.214Z,8.23
2018-06-05T13:35:05.614Z,14.77
2018-06-05T13:37:34.972Z,10.73
2018-06-05T13:40:04.294Z,12.13
2018-06-05T13:42:33.615Z,9.00
2018-06-05T13:45:02.944Z,9.83
2018-06-05T13:47:32.339Z,6.87
2018-06-05T13:50:01.684Z,9.77
2018-06-05T13:52:30.805Z,14.57
2018-06-05T13:55:00.244Z,9.13
2018-06-05T13:57:29.579Z,8.13
2018-06-05T13:59:58.945Z,9.07
2018-06-05T14:02:28.901Z,16.23
2018-06-05T14:04:58.328Z,4.47
2018-06-05T14:07:27.701Z,9.77
2018-06-05T14:09:57.116Z,14.23
2018-06-05T14:12:26.215Z,10.63
2018-06-05T14:14:55.324Z,8.57
2018-06-05T14:17:24.726Z,6.90
2018-06-05T14:19:54.093Z,7.63
2018-06-05T14:22:23.431Z,9.87
2018-06-05T14:24:53.046Z,7.33
2018-06-05T14:27:22.433Z,16.67
2018-06-05T14:29:51.841Z,9.87
2018-06-05T14:32:21.252Z,12.70
2018-06-05T14:34:50.637Z,9.77
2018-06-05T14:37:20.178Z,8.70
2018-06-05T14:39:49.595Z,9.17
2018-06-05T14:42:18.983Z,9.27
2018-06-05T14:44:48.375Z,13.70
2018-06-05T14:47:18.168Z,9.97
2018-06-05T14:49:47.548Z,12.47
2018-06-05T14:52:17.222Z,14.23
2018-06-05T14:54:46.620Z,11.40
2018-06-05T14:57:15.980Z,11.30
2018-06-05T14:59:45.355Z,10.80
2018-06-05T15:02:14.762Z,11.53
2018-06-05T15:04:44.084Z,21.20
2018-06-05T15:07:13.556Z,7.60
2018-06-05T15:09:43.508Z,17.60
2018-06-05T15:12:12.853Z,11.00
2018-06-05T15:14:42.206Z,6.63
2018-06-05T15:17:11.580Z,9.87
2018-06-05T15:19:40.909Z,15.03
2018-06-05T15:22:10.437Z,15.20
2018-06-05T15:24:39.826Z,6.10
2018-06-05T15:27:09.223Z,8.77
2018-06-05T15:29:38.725Z,21.63
2018-06-05T15:32:08.477Z,25.07
2018-06-05T15:34:37.982Z,11.63
2018-06-05T15:37:07.486Z,28.40
2018-06-05T15:39:36.926Z,22.40
2018-06-05T15:42:06.377Z,13.47
2018-06-05T15:44:36.203Z,10.07
2018-06-05T15:47:05.626Z,12.27
2018-06-05T15:49:35.103Z,17.80
2018-06-05T15:52:04.565Z,7.90
2018-06-05T15:54:34.247Z,28.47
2018-06-05T15:57:03.738Z,15.90
2018-06-05T15:59:33.322Z,13.30
2018-06-05T16:02:03.285Z,12.13
2018-06-05T16:04:33.241Z,16.77
2018-06-05T16:07:03.703Z,14.53
2018-06-05T16:09:33.315Z,10.77
2018-06-05T16:12:02.837Z,14.83
2018-06-05T16:14:33.156Z,11.20
2018-06-05T16:17:02.831Z,15.80
2018-06-05T16:19:32.368Z,16.87
2018-06-05T16:22:01.973Z,18.73
2018-06-05T16:24:31.655Z,10.93
2018-06-05T16:27:00.827Z,14.27
2018-06-05T16:29:30.453Z,20.43
2018-06-05T16:31:59.720Z,21.13
2018-06-05T16:34:29.632Z,31.70
2018-06-05T16:36:59.046Z,16.73
2018-06-05T16:39:28.828Z,11.07
2018-06-05T16:41:58.316Z,12.27
2018-06-05T16:44:27.845Z,13.40
2018-06-05T16:46:57.472Z,10.70
2018-06-05T16:49:26.901Z,19.10
2018-06-05T16:51:56.461Z,9.90
2018-06-05T16:54:26.571Z,12.53
2018-06-05T16:56:56.041Z,13.97
2018-06-05T16:59:25.544Z,8.83
2018-06-05T17:01:55.457Z,19.93
2018-06-05T17:04:25.025Z,29.73
2018-06-05T17:06:54.567Z,16.67
2018-06-05T17:09:24.131Z,11.70
2018-06-05T17:11:53.744Z,15.30
2018-06-05T17:14:23.191Z,26.90
2018-06-05T17:16:52.783Z,20.70
2018-06-05T17:19:23.343Z,24.90
2018-06-05T17:21:53.293Z,10.80
2018-06-05T17:24:23.132Z,12.57
2018-06-05T17:26:52.701Z,11.30
2018-06-05T17:29:22.217Z,22.30
2018-06-05T17:31:51.853Z,19.77
2018-06-05T17:34:21.791Z,11.10
2018-06-05T17:36:52.102Z,19.00
2018-06-05T17:39:21.648Z,15.97
2018-06-05T17:41:51.236Z,11.00
2018-06-05T17:44:21.744Z,15.07
2018-06-05T17:46:51.366Z,10.13
2018-06-05T17:49:21.274Z,18.23
2018-06-05T17:51:51.122Z,14.83
2018-06-05T17:54:20.744Z,12.23
2018-06-05T17:56:50.294Z,31.77
2018-06-05T17:59:20.331Z,18.13
2018-06-05T18:01:51.084Z,12.30
2018-06-05T18:04:20.782Z,13.77
2018-06-05T18:06:52.288Z,20.30
2018-06-05T18:09:25.461Z,13.23
2018-06-05T18:11:55.952Z,14.00
2018-06-05T18:14:26.694Z,15.40
2018-06-05T18:16:59.729Z,8.23
2018-06-05T18:19:29.502Z,8.27
2018-06-05T18:22:01.967Z,15.60
2018-06-05T18:24:40.180Z,23.90
2018-06-05T18:27:11.123Z,34.67
2018-06-05T18:29:41.335Z,17.73
2018-06-05T18:32:11.466Z,15.63
2018-06-05T18:34:42.558Z,17.23
2018-06-05T18:37:13.346Z,18.57
2018-06-05T18:39:44.894Z,31.53
2018-06-05T18:42:17.815Z,18.40
2018-06-05T18:44:49.182Z,14.53
2018-06-05T18:47:19.837Z,14.80
2018-06-05T18:49:50.471Z,11.10
2018-06-05T18:52:22.087Z,13.30
2018-06-05T18:54:58.581Z,12.73
2018-06-05T18:57:29.151Z,8.23
2018-06-05T19:00:05.255Z,26.50
2018-06-05T19:02:39.531Z,14.53
2018-06-05T19:05:10.777Z,15.90
2018-06-05T19:07:42.799Z,15.17
2018-06-05T19:10:12.926Z,14.73
2018-06-05T19:12:43.879Z,20.53
2018-06-05T19:15:18.171Z,9.90
2018-06-05T19:18:02.550Z,17.00
2018-06-05T19:20:36.340Z,15.53
2018-06-05T19:23:12.645Z,17.33
2018-06-05T19:25:47.098Z,10.87
2018-06-05T19:28:18.639Z,14.83
2018-06-05T19:30:52.766Z,17.83
2018-06-05T19:33:24.285Z,21.00
2018-06-05T19:36:04.319Z,19.93
2018-06-05T19:38:36.921Z,14.47
2018-06-05T19:41:08.719Z,15.87
2018-06-05T19:43:41.248Z,11.00
2018-06-05T19:46:11.409Z,24.30
2018-06-05T19:48:44.326Z,17.30
2018-06-05T19:51:15.731Z,12.00
2018-06-05T19:53:46.344Z,28.67
2018-06-05T19:56:15.628Z,19.50
2018-06-05T19:58:45.029Z,16.90
2018-06-05T20:01:14.637Z,21.70
2018-06-05T20:03:44.106Z,20.00
2018-06-05T20:06:13.541Z,26.33
2018-06-05T20:08:42.917Z,20.47
2018-06-05T20:11:13.134Z,24.13
2018-06-05T20:13:42.551Z,20.13
2018-06-05T20:16:12.349Z,22.17
2018-06-05T20:18:41.970Z,30.87
2018-06-05T20:21:11.287Z,26.30
2018-06-05T20:23:40.675Z,21.63
2018-06-05T20:26:10.125Z,21.77
2018-06-05T20:28:39.464Z,21.60
2018-06-05T20:31:08.840Z,25.57
2018-06-05T20:33:38.185Z,26.40
2018-06-05T20:36:07.511Z,18.40
2018-06-05T20:38:37.257Z,22.50
2018-06-05T20:41:06.750Z,21.43
2018-06-05T20:43:36.278Z,17.93
2018-06-05T20:46:05.892Z,26.83
2018-06-05T20:48:35.515Z,35.07
2018-06-05T20:51:04.996Z,15.70
2018-06-05T20:53:35.176Z,25.10
2018-06-05T20:56:04.589Z,21.17
2018-06-05T20:58:34.023Z,24.97
2018-06-05T21:01:03.538Z,36.60
2018-06-05T21:03:33.203Z,24.93
2018-06-05T21:06:02.497Z,22.43
2018-06-05T21:08:32.008Z,27.40
2018-06-05T21:11:01.440Z,19.63
2018-06-05T21:13:30.829Z,24.77
2018-06-05T21:16:00.231Z,27.67
2018-06-05T21:18:29.593Z,19.07
2018-06-05T21:20:58.912Z,19.00
2018-06-05T21:23:28.640Z,20.80
2018-06-05T21:25:57.963Z,19.47
2018-06-05T21:28:27.340Z,23.53
2018-06-05T21:30:56.726Z,17.90
2018-06-05T21:33:26.096Z,21.63
2018-06-05T21:35:55.183Z,20.30
2018-06-05T21:38:24.657Z,19.17
2018-06-05T21:40:54.003Z,24.57
2018-06-05T21:43:23.372Z,24.20
2018-06-05T21:45:52.973Z,17.63
2018-06-05T21:48:22.317Z,20.73
2018-06-05T21:50:51.638Z,20.27
2018-06-05T21:53:21.015Z,21.70
2018-06-05T21:55:50.392Z,18.03
2018-06-05T21:58:19.730Z,28.27
2018-06-05T22:00:49.183Z,17.23
2018-06-05T22:03:18.479Z,16.57
2018-06-05T22:05:47.837Z,15.47
2018-06-05T22:08:17.681Z,14.77
2018-06-05T22:10:47.020Z,18.53
2018-06-05T22:13:16.364Z,21.23
2018-06-05T22:15:45.925Z,12.47
2018-06-05T22:18:15.233Z,13.23
2018-06-05T22:20:44.518Z,18.50
2018-06-05T22:23:13.861Z,9.80
2018-06-05T22:25:43.244Z,15.67
2018-06-05T22:28:12.558Z,9.93
2018-06-05T22:30:42.278Z,25.03
2018-06-05T22:33:11.581Z,7.67
2018-06-05T22:35:40.961Z,15.40
2018-06-05T22:38:10.377Z,10.80
2018-06-05T22:40:39.655Z,7.83
2018-06-05T22:43:08.728Z,8.20
2018-06-05T22:45:38.165Z,9.20
2018-06-05T22:48:07.526Z,5.83
2018-06-05T22:50:36.946Z,6.97
2018-06-05T22:53:06.435Z,8.43
2018-06-05T22:55:36.175Z,5.43
2018-06-05T22:58:05.463Z,10.40
2018-06-05T23:00:35.065Z,4.93
2018-06-05T23:03:04.815Z,7.50
2018-06-05T23:05:34.359Z,5.83
2018-06-05T23:08:03.930Z,11.73
2018-06-05T23:10:33.718Z,4.90
2018-06-05T23:13:03.458Z,5.87
2018-06-05T23:15:33.006Z,4.60
2018-06-05T23:18:02.537Z,4.83
2018-06-05T23:20:32.016Z,16.73
2018-06-05T23:23:01.480Z,3.60
2018-06-05T23:25:31.230Z,4.20
2018-06-05T23:28:00.406Z,3.17
2018-06-05T23:30:29.874Z,8.50
2018-06-05T23:32:59.272Z,3.27
2018-06-05T23:35:28.685Z,3.93
2018-06-05T23:37:58.680Z,4.03
2018-06-05T23:40:28.072Z,2.90
2018-06-05T23:42:57.607Z,3.83
2018-06-05T23:45:27.071Z,5.03
2018-06-05T23:47:56.367Z,3.30
2018-06-05T23:50:25.634Z,2.60
2018-06-05T23:52:55.250Z,4.10
2018-06-05T23:55:24.878Z,3.20
2018-06-05T23:57:54.275Z,10.63
